createdAt,value
2018-06-12T00:00:54.528Z,4.30
2018-06-12T00:03:22.097Z,4.93
2018-06-12T00:05:49.582Z,5.47
2018-06-12T00:08:17.138Z,6.73
2018-06-12T00:10:44.783Z,5.20
2018-06-12T00:13:12.332Z,5.63
2018-06-12T00:15:39.918Z,5.50
2018-06-12T00:18:07.448Z,5.17
2018-06-12T00:20:35.047Z,5.37
2018-06-12T00:23:02.647Z,4.90
2018-06-12T00:25:30.231Z,5.43
2018-06-12T00:27:57.817Z,5.50
2018-06-12T00:30:25.288Z,4.67
2018-06-12T00:32:52.867Z,3.63
2018-06-12T00:35:20.474Z,4.90
2018-06-12T00:37:47.992Z,3.80
2018-06-12T00:40:15.493Z,4.23
2018-06-12T00:42:43.041Z,3.50
2018-06-12T00:45:10.591Z,4.00
2018-06-12T00:47:38.177Z,3.10
2018-06-12T00:50:17.605Z,3.27
2018-06-12T00:52:45.117Z,3.10
2018-06-12T00:55:12.643Z,2.67
2018-06-12T00:57:40.154Z,4.50
2018-06-12T01:00:07.758Z,3.27
2018-06-12T01:02:35.187Z,3.83
2018-06-12T01:05:02.638Z,4.77
2018-06-12T01:07:30.153Z,3.50
2018-06-12T01:09:57.679Z,3.13
2018-06-12T01:12:25.126Z,3.43
2018-06-12T01:14:52.641Z,3.70
2018-06-12T01:17:20.157Z,3.10
2018-06-12T01:22:18.842Z,2.97
2018-06-12T01:24:46.339Z,3.77
2018-06-12T01:27:23.319Z,2.80
2018-06-12T01:29:50.814Z,3.37
2018-06-12T01:32:18.296Z,3.23
2018-06-12T01:34:45.931Z,3.57
2018-06-12T01:37:13.449Z,3.60
2018-06-12T01:39:40.986Z,2.97
2018-06-12T01:42:08.606Z,2.77
2018-06-12T01:44:36.109Z,3.00
2018-06-12T01:47:04.104Z,3.40
2018-06-12T01:49:31.695Z,2.70
2018-06-12T01:51:59.330Z,2.87
2018-06-12T01:54:26.956Z,3.50
2018-06-12T01:56:54.571Z,3.13
2018-06-12T01:59:22.146Z,2.97
2018-06-12T02:01:49.661Z,3.30
2018-06-12T02:04:17.163Z,2.63
2018-06-12T02:06:44.781Z,3.03
2018-06-12T02:09:12.318Z,2.67
2018-06-12T02:11:39.959Z,2.67
2018-06-12T02:14:07.456Z,2.83
2018-06-12T02:16:35.086Z,3.17
2018-06-12T02:19:02.684Z,3.37
2018-06-12T02:21:30.340Z,4.37
2018-06-12T02:23:57.975Z,3.70
2018-06-12T02:26:25.479Z,3.57
2018-06-12T02:28:53.109Z,6.00
2018-06-12T02:31:20.724Z,5.63
2018-06-12T02:33:48.334Z,5.70
2018-06-12T02:36:15.939Z,5.90
2018-06-12T02:38:43.525Z,7.17
2018-06-12T02:41:11.151Z,7.00
2018-06-12T02:43:38.765Z,6.63
2018-06-12T02:46:06.385Z,5.17
2018-06-12T02:48:34.000Z,7.13
2018-06-12T02:51:01.522Z,7.20
2018-06-12T02:53:29.011Z,4.83
2018-06-12T02:55:56.691Z,7.10
2018-06-12T02:58:24.188Z,5.53
2018-06-12T03:00:51.842Z,6.47
2018-06-12T03:03:19.303Z,6.77
2018-06-12T03:05:46.876Z,6.23
2018-06-12T03:08:14.510Z,6.63
2018-06-12T03:10:42.139Z,7.07
2018-06-12T03:13:09.708Z,6.40
2018-06-12T03:15:37.390Z,5.57
2018-06-12T03:18:05.026Z,5.40
2018-06-12T03:20:43.684Z,5.60
2018-06-12T03:23:11.408Z,5.33
2018-06-12T03:25:39.013Z,4.40
2018-06-12T03:28:06.697Z,4.40
2018-06-12T03:30:34.234Z,5.07
2018-06-12T03:33:01.772Z,5.00
2018-06-12T03:35:29.289Z,5.07
2018-06-12T03:37:56.989Z,5.27
2018-06-12T03:40:24.479Z,6.40
2018-06-12T03:42:52.077Z,6.07
2018-06-12T03:45:19.711Z,5.40
2018-06-12T03:47:47.350Z,6.03
2018-06-12T03:50:14.980Z,5.00
2018-06-12T03:52:42.555Z,5.07
2018-06-12T03:55:10.105Z,5.93
2018-06-12T03:57:37.728Z,6.50
2018-06-12T04:00:05.718Z,6.50
2018-06-12T04:02:34.181Z,6.60
2018-06-12T04:05:01.830Z,6.30
2018-06-12T04:07:29.495Z,6.07
2018-06-12T04:09:57.114Z,5.17
2018-06-12T04:12:24.766Z,4.97
2018-06-12T04:14:52.290Z,6.30
2018-06-12T04:17:19.911Z,5.03
2018-06-12T04:19:47.536Z,5.43
2018-06-12T04:22:15.187Z,5.87
2018-06-12T04:24:42.824Z,4.53
2018-06-12T04:27:10.354Z,5.20
2018-06-12T04:29:37.982Z,4.90
2018-06-12T04:32:05.590Z,7.03
2018-06-12T04:34:33.160Z,5.07
2018-06-12T04:37:00.721Z,5.20
2018-06-12T04:39:28.282Z,5.07
2018-06-12T04:41:55.896Z,5.70
2018-06-12T04:44:23.550Z,4.97
2018-06-12T04:46:51.177Z,4.17
2018-06-12T04:49:18.722Z,4.40
2018-06-12T04:51:46.365Z,5.73
2018-06-12T04:54:13.968Z,4.63
2018-06-12T04:56:41.464Z,4.30
2018-06-12T04:59:09.090Z,5.10
2018-06-12T05:01:36.647Z,4.60
2018-06-12T05:04:04.252Z,6.17
2018-06-12T05:06:31.792Z,5.00
2018-06-12T05:08:59.372Z,5.90
2018-06-12T05:11:27.006Z,6.53
2018-06-12T05:13:54.617Z,6.60
2018-06-12T05:16:22.272Z,5.17
2018-06-12T05:18:49.744Z,6.97
2018-06-12T05:21:17.367Z,6.43
2018-06-12T05:23:44.973Z,7.10
2018-06-12T05:26:12.517Z,9.77
2018-06-12T05:28:40.151Z,6.00
2018-06-12T05:31:07.672Z,6.57
2018-06-12T05:33:35.254Z,9.77
2018-06-12T05:36:02.795Z,8.87
2018-06-12T05:38:30.407Z,8.90
2018-06-12T05:40:58.016Z,8.87
2018-06-12T05:43:25.562Z,10.30
2018-06-12T05:45:53.161Z,9.87
2018-06-12T05:48:20.782Z,7.40
2018-06-12T05:50:48.385Z,10.17
2018-06-12T05:53:16.062Z,9.93
2018-06-12T05:55:43.689Z,10.90
2018-06-12T05:58:11.354Z,10.93
2018-06-12T06:00:38.958Z,11.57
2018-06-12T06:03:06.621Z,12.50
2018-06-12T06:05:34.282Z,9.20
2018-06-12T06:08:01.812Z,7.83
2018-06-12T06:10:29.511Z,10.63
2018-06-12T06:12:57.111Z,9.53
2018-06-12T06:15:24.706Z,10.73
2018-06-12T06:17:52.387Z,10.37
2018-06-12T06:20:20.040Z,11.53
2018-06-12T06:22:47.504Z,10.07
2018-06-12T06:25:15.075Z,9.80
2018-06-12T06:27:42.631Z,12.93
2018-06-12T06:30:10.148Z,9.77
2018-06-12T06:32:37.883Z,11.27
2018-06-12T06:35:05.527Z,10.57
2018-06-12T06:37:33.012Z,11.37
2018-06-12T06:40:00.628Z,9.57
2018-06-12T06:42:28.354Z,10.57
2018-06-12T06:44:55.831Z,10.73
2018-06-12T06:47:23.541Z,11.00
2018-06-12T06:49:51.033Z,9.67
2018-06-12T06:52:18.686Z,10.33
2018-06-12T06:54:46.298Z,8.67
2018-06-12T06:57:14.161Z,11.33
2018-06-12T06:59:41.791Z,12.50
2018-06-12T07:02:09.463Z,11.43
2018-06-12T07:04:37.091Z,11.90
2018-06-12T07:07:04.792Z,11.67
2018-06-12T07:09:32.276Z,11.37
2018-06-12T07:11:59.930Z,11.63
2018-06-12T07:14:27.465Z,11.83
2018-06-12T07:16:55.089Z,9.40
2018-06-12T07:19:22.761Z,10.70
2018-06-12T07:21:50.324Z,11.07
2018-06-12T07:24:17.927Z,9.73
2018-06-12T07:26:45.525Z,11.60
2018-06-12T07:29:13.170Z,10.33
2018-06-12T07:31:40.836Z,10.17
2018-06-12T07:34:08.520Z,10.10
2018-06-12T07:36:36.176Z,10.30
2018-06-12T07:39:06.985Z,10.87
2018-06-12T07:41:34.602Z,9.17
2018-06-12T07:44:02.271Z,9.23
2018-06-12T07:46:29.833Z,9.17
2018-06-12T07:48:57.358Z,10.27
2018-06-12T07:51:24.989Z,10.67
2018-06-12T07:53:52.622Z,9.47
2018-06-12T07:56:20.346Z,9.13
2018-06-12T07:58:47.981Z,9.87
2018-06-12T08:01:15.618Z,10.70
2018-06-12T08:03:43.248Z,8.70
2018-06-12T08:06:10.966Z,8.83
2018-06-12T08:08:38.461Z,8.40
2018-06-12T08:11:06.133Z,9.03
2018-06-12T08:13:33.723Z,9.40
2018-06-12T08:16:01.399Z,9.90
2018-06-12T08:18:29.017Z,9.83
2018-06-12T08:20:56.567Z,8.20
2018-06-12T08:23:24.234Z,7.90
2018-06-12T08:25:51.806Z,8.93
2018-06-12T08:28:19.288Z,8.53
2018-06-12T08:30:46.894Z,9.70
2018-06-12T08:33:14.534Z,10.20
2018-06-12T08:35:42.033Z,8.90
2018-06-12T08:38:09.647Z,8.97
2018-06-12T08:40:37.150Z,8.03
2018-06-12T08:43:04.721Z,8.60
2018-06-12T08:45:32.373Z,8.20
2018-06-12T08:47:59.969Z,6.43
2018-06-12T08:50:27.583Z,7.40
2018-06-12T08:52:55.214Z,8.60
2018-06-12T08:55:22.822Z,7.27
2018-06-12T08:57:50.488Z,7.60
2018-06-12T09:00:18.120Z,7.63
2018-06-12T09:02:45.693Z,7.20
2018-06-12T09:05:13.295Z,6.03
2018-06-12T09:07:40.882Z,4.00
2018-06-12T09:10:08.481Z,5.63
2018-06-12T09:12:35.998Z,5.70
2018-06-12T09:15:04.116Z,5.63
2018-06-12T09:17:31.709Z,5.50
2018-06-12T09:19:59.205Z,4.90
2018-06-12T09:22:26.779Z,5.00
2018-06-12T09:24:54.362Z,5.00
2018-06-12T09:27:22.001Z,4.67
2018-06-12T09:29:49.614Z,5.20
2018-06-12T09:32:17.257Z,4.73
2018-06-12T09:34:44.868Z,4.50
2018-06-12T09:37:12.522Z,4.73
2018-06-12T09:39:40.113Z,5.43
2018-06-12T09:42:07.648Z,5.67
2018-06-12T09:44:35.292Z,5.30
2018-06-12T09:47:02.898Z,3.73
2018-06-12T09:49:30.387Z,4.70
2018-06-12T09:51:58.032Z,4.67
2018-06-12T09:54:25.539Z,3.63
2018-06-12T09:56:53.088Z,3.63
2018-06-12T09:59:20.718Z,3.30
2018-06-12T10:01:48.321Z,4.33
2018-06-12T10:04:15.997Z,3.33
2018-06-12T10:06:43.632Z,3.47
2018-06-12T10:09:11.210Z,4.07
2018-06-12T10:11:38.813Z,5.47
2018-06-12T10:14:06.384Z,5.43
2018-06-12T10:16:34.022Z,4.10
2018-06-12T10:19:01.664Z,3.93
2018-06-12T10:21:29.262Z,3.33
2018-06-12T10:23:56.960Z,3.27
2018-06-12T10:26:24.693Z,3.03
2018-06-12T10:28:52.206Z,3.90
2018-06-12T10:31:19.825Z,3.27
2018-06-12T10:33:47.519Z,3.80
2018-06-12T10:36:15.098Z,3.60
2018-06-12T10:38:42.774Z,3.17
2018-06-12T10:41:10.358Z,3.50
2018-06-12T10:43:37.998Z,3.77
2018-06-12T10:46:05.659Z,3.27
2018-06-12T10:48:33.303Z,2.17
2018-06-12T10:51:00.954Z,2.30
2018-06-12T10:53:28.616Z,1.87
2018-06-12T10:55:56.233Z,3.80
2018-06-12T10:58:23.736Z,3.60
2018-06-12T11:00:51.377Z,4.27
2018-06-12T11:03:19.000Z,4.67
2018-06-12T11:05:46.595Z,5.20
2018-06-12T11:08:14.263Z,3.30
2018-06-12T11:10:41.844Z,2.33
2018-06-12T11:13:09.459Z,2.10
2018-06-12T11:15:37.070Z,1.60
2018-06-12T11:18:04.967Z,1.70
2018-06-12T11:20:32.558Z,1.30
2018-06-12T11:23:00.095Z,1.27
2018-06-12T11:25:27.665Z,1.20
2018-06-12T11:27:55.212Z,1.40
2018-06-12T11:30:22.744Z,1.20
2018-06-12T11:32:50.349Z,1.20
2018-06-12T11:35:17.994Z,1.50
2018-06-12T11:37:45.658Z,1.57
2018-06-12T11:40:13.270Z,1.10
2018-06-12T11:42:40.788Z,1.67
2018-06-12T11:45:08.386Z,1.47
2018-06-12T11:47:36.038Z,1.60
2018-06-12T11:50:03.735Z,1.40
2018-06-12T11:52:31.465Z,1.63
2018-06-12T11:54:59.109Z,1.80
2018-06-12T11:57:26.791Z,1.30
2018-06-12T11:59:54.574Z,1.33
2018-06-12T12:02:22.228Z,1.23
2018-06-12T12:04:49.852Z,1.37
2018-06-12T12:07:17.342Z,1.23
2018-06-12T12:09:45.018Z,1.53
2018-06-12T12:12:12.588Z,1.40
2018-06-12T12:14:40.188Z,1.10
2018-06-12T12:17:07.811Z,1.20
2018-06-12T12:19:35.340Z,1.33
2018-06-12T12:22:02.957Z,1.50
2018-06-12T12:24:30.600Z,1.60
2018-06-12T12:26:58.186Z,1.87
2018-06-12T12:29:25.793Z,1.70
2018-06-12T12:31:53.414Z,1.40
2018-06-12T12:34:21.059Z,2.00
2018-06-12T12:36:48.574Z,1.77
2018-06-12T12:39:16.118Z,1.77
2018-06-12T12:41:43.771Z,1.40
2018-06-12T12:44:11.471Z,1.83
2018-06-12T12:46:38.983Z,1.50
2018-06-12T12:49:06.640Z,1.50
2018-06-12T12:51:34.286Z,1.63
2018-06-12T12:54:01.881Z,2.10
2018-06-12T12:56:29.560Z,2.53
2018-06-12T12:58:57.088Z,3.10
2018-06-12T13:01:24.781Z,2.50
2018-06-12T13:03:52.362Z,2.17
2018-06-12T13:06:20.125Z,1.87
2018-06-12T13:08:47.673Z,1.87
2018-06-12T13:11:15.273Z,1.50
2018-06-12T13:13:42.924Z,1.83
2018-06-12T13:16:10.474Z,2.30
2018-06-12T13:18:38.001Z,4.13
2018-06-12T13:21:05.653Z,4.53
2018-06-12T13:23:33.308Z,3.73
2018-06-12T13:26:00.800Z,3.73
2018-06-12T13:28:28.456Z,4.50
2018-06-12T13:30:55.931Z,4.80
2018-06-12T13:33:23.614Z,4.27
2018-06-12T13:35:51.094Z,4.20
2018-06-12T13:38:18.775Z,5.03
2018-06-12T13:40:46.281Z,3.97
2018-06-12T13:43:13.950Z,2.57
2018-06-12T13:45:41.527Z,1.60
2018-06-12T13:48:09.161Z,1.50
2018-06-12T13:50:36.821Z,2.10
2018-06-12T13:53:04.462Z,2.00
2018-06-12T13:55:32.029Z,3.50
2018-06-12T13:57:59.646Z,3.00
2018-06-12T14:00:27.225Z,4.10
2018-06-12T14:02:54.850Z,3.50
2018-06-12T14:05:22.547Z,4.80
2018-06-12T14:07:50.182Z,3.67
2018-06-12T14:10:17.737Z,2.67
2018-06-12T14:12:45.347Z,2.27
2018-06-12T14:15:12.936Z,39.87
2018-06-12T14:17:40.607Z,1.70
2018-06-12T14:20:08.305Z,1.20
2018-06-12T14:22:35.974Z,1.20
2018-06-12T14:25:03.600Z,1.80
2018-06-12T14:27:31.190Z,1.80
2018-06-12T14:29:58.850Z,1.53
2018-06-12T14:32:26.425Z,2.50
2018-06-12T14:34:54.003Z,2.73
2018-06-12T14:37:21.675Z,2.70
2018-06-12T14:39:49.321Z,2.40
2018-06-12T14:42:16.983Z,2.57
2018-06-12T14:44:44.591Z,3.07
2018-06-12T14:47:12.190Z,2.10
2018-06-12T14:49:39.840Z,2.90
2018-06-12T14:52:07.497Z,3.73
2018-06-12T14:54:34.996Z,2.73
2018-06-12T14:57:02.555Z,2.37
2018-06-12T14:59:30.199Z,2.50
2018-06-12T15:01:57.883Z,2.93
2018-06-12T15:04:25.552Z,3.10
2018-06-12T15:06:53.287Z,3.07
2018-06-12T15:09:20.941Z,2.30
2018-06-12T15:11:48.504Z,2.47
2018-06-12T15:14:16.146Z,3.00
2018-06-12T15:16:43.772Z,3.43
2018-06-12T15:19:11.377Z,3.53
2018-06-12T15:21:38.982Z,4.70
2018-06-12T15:24:06.615Z,4.30
2018-06-12T15:26:34.311Z,4.30
2018-06-12T15:29:01.975Z,5.13
2018-06-12T15:31:29.610Z,7.87
2018-06-12T15:33:57.314Z,6.27
2018-06-12T15:36:24.966Z,10.60
2018-06-12T15:38:52.616Z,9.73
2018-06-12T15:41:20.246Z,18.37
2018-06-12T15:43:47.916Z,10.60
2018-06-12T15:46:15.446Z,11.27
2018-06-12T15:48:43.136Z,14.70
2018-06-12T15:51:10.638Z,17.33
2018-06-12T15:53:38.278Z,15.10
2018-06-12T15:56:05.980Z,11.17
2018-06-12T15:58:33.482Z,11.33
2018-06-12T16:01:01.157Z,12.57
2018-06-12T16:03:28.771Z,13.23
2018-06-12T16:05:56.426Z,19.37
2018-06-12T16:08:24.036Z,12.30
2018-06-12T16:10:51.706Z,11.93
2018-06-12T16:13:19.315Z,9.60
2018-06-12T16:15:47.871Z,12.17
2018-06-12T16:18:15.520Z,9.50
2018-06-12T16:20:43.273Z,10.43
2018-06-12T16:23:10.887Z,10.50
2018-06-12T16:25:38.489Z,12.60
2018-06-12T16:28:06.146Z,12.20
2018-06-12T16:30:33.743Z,10.03
2018-06-12T16:33:01.442Z,13.47
2018-06-12T16:35:29.090Z,12.97
2018-06-12T16:37:56.794Z,9.17
2018-06-12T16:40:24.411Z,8.30
2018-06-12T16:42:52.047Z,8.30
2018-06-12T16:45:19.681Z,7.30
2018-06-12T16:47:48.217Z,8.33
2018-06-12T16:50:15.871Z,8.87
2018-06-12T16:52:43.547Z,8.00
2018-06-12T16:55:11.168Z,7.70
2018-06-12T16:57:38.857Z,7.00
2018-06-12T17:00:06.484Z,8.23
2018-06-12T17:02:34.101Z,6.37
2018-06-12T17:05:01.670Z,9.13
2018-06-12T17:07:29.397Z,7.60
2018-06-12T17:09:57.107Z,8.80
2018-06-12T17:12:24.615Z,8.90
2018-06-12T17:14:52.266Z,10.83
2018-06-12T17:17:19.916Z,10.97
2018-06-12T17:19:47.610Z,9.67
2018-06-12T17:22:15.296Z,10.63
2018-06-12T17:24:42.895Z,11.97
2018-06-12T17:27:10.551Z,12.17
2018-06-12T17:29:38.241Z,9.87
2018-06-12T17:32:05.799Z,8.60
2018-06-12T17:34:33.448Z,7.67
2018-06-12T17:37:01.185Z,8.20
2018-06-12T17:39:28.730Z,7.57
2018-06-12T17:41:56.466Z,8.43
2018-06-12T17:44:24.159Z,7.53
2018-06-12T17:46:51.805Z,6.17
2018-06-12T17:49:19.442Z,5.17
2018-06-12T17:51:47.071Z,5.70
2018-06-12T17:54:14.715Z,6.37
2018-06-12T17:56:42.211Z,7.20
2018-06-12T17:59:09.893Z,5.13
2018-06-12T18:01:37.596Z,7.73
2018-06-12T18:04:05.262Z,6.83
2018-06-12T18:06:32.960Z,7.00
2018-06-12T18:09:00.616Z,7.77
2018-06-12T18:11:28.307Z,8.00
2018-06-12T18:13:55.974Z,9.73
2018-06-12T18:16:23.582Z,6.93
2018-06-12T18:18:51.175Z,6.80
2018-06-12T18:21:18.831Z,6.10
2018-06-12T18:23:46.454Z,6.27
2018-06-12T18:26:14.112Z,6.77
2018-06-12T18:28:41.830Z,6.70
2018-06-12T18:31:09.487Z,10.37
2018-06-12T18:33:37.132Z,6.47
2018-06-12T18:36:04.926Z,7.60
2018-06-12T18:38:32.609Z,5.90
2018-06-12T18:41:00.163Z,6.60
2018-06-12T18:43:27.829Z,7.03
2018-06-12T18:45:55.512Z,7.17
2018-06-12T18:48:23.232Z,7.43
2018-06-12T18:50:50.893Z,6.23
2018-06-12T18:53:18.460Z,11.03
2018-06-12T18:55:46.092Z,9.13
2018-06-12T18:58:13.772Z,9.13
2018-06-12T19:00:41.557Z,8.20
2018-06-12T19:03:09.191Z,9.10
2018-06-12T19:05:36.872Z,7.40
2018-06-12T19:08:04.450Z,7.80
2018-06-12T19:10:32.102Z,7.07
2018-06-12T19:12:59.820Z,9.07
2018-06-12T19:15:27.446Z,9.30
2018-06-12T19:17:55.084Z,7.90
2018-06-12T19:20:22.807Z,8.00
2018-06-12T19:22:50.468Z,9.70
2018-06-12T19:25:18.141Z,8.23
2018-06-12T19:27:45.742Z,8.13
2018-06-12T19:30:13.443Z,9.43
2018-06-12T19:32:41.086Z,9.07
2018-06-12T19:35:08.840Z,9.90
2018-06-12T19:37:36.358Z,9.20
2018-06-12T19:40:04.317Z,10.40
2018-06-12T19:42:31.995Z,8.67
2018-06-12T19:44:59.685Z,11.17
2018-06-12T19:47:27.347Z,11.23
2018-06-12T19:49:54.883Z,8.67
2018-06-12T19:52:22.567Z,7.93
2018-06-12T19:54:50.231Z,12.93
2018-06-12T19:57:18.006Z,9.00
2018-06-12T19:59:45.601Z,10.50
2018-06-12T20:02:13.307Z,11.23
2018-06-12T20:04:41.112Z,9.93
2018-06-12T20:07:08.769Z,9.63
2018-06-12T20:09:36.495Z,11.93
2018-06-12T20:12:04.217Z,11.43
2018-06-12T20:14:31.937Z,11.90
2018-06-12T20:16:59.536Z,11.10
2018-06-12T20:19:27.243Z,11.73
2018-06-12T20:21:54.923Z,12.87
2018-06-12T20:24:22.636Z,10.37
2018-06-12T20:26:50.293Z,15.17
2018-06-12T20:29:17.938Z,13.37
2018-06-12T20:31:45.422Z,10.07
2018-06-12T20:34:13.036Z,11.53
2018-06-12T20:36:40.571Z,11.77
2018-06-12T20:39:08.310Z,10.07
2018-06-12T20:41:36.219Z,8.20
2018-06-12T20:44:13.822Z,9.10
2018-06-12T20:46:41.688Z,9.10
2018-06-12T20:49:09.287Z,9.63
2018-06-12T20:51:37.579Z,9.83
2018-06-12T20:54:05.307Z,7.97
2018-06-12T20:56:33.807Z,6.73
2018-06-12T20:59:02.926Z,7.73
2018-06-12T21:01:31.201Z,7.43
2018-06-12T21:03:58.747Z,6.80
2018-06-12T21:06:26.421Z,9.53
2018-06-12T21:08:54.501Z,6.47
2018-06-12T21:11:22.653Z,7.87
2018-06-12T21:13:50.764Z,7.53
2018-06-12T21:16:19.482Z,8.97
2018-06-12T21:18:48.871Z,7.27
2018-06-12T21:21:18.546Z,10.93
2018-06-12T21:23:47.709Z,8.60
2018-06-12T21:26:15.346Z,9.87
2018-06-12T21:28:43.122Z,10.33
2018-06-12T21:31:10.753Z,8.37
2018-06-12T21:33:38.383Z,10.73
2018-06-12T21:36:05.966Z,9.90
2018-06-12T21:38:33.646Z,10.30
2018-06-12T21:41:02.997Z,9.33
2018-06-12T21:43:31.053Z,9.33
2018-06-12T21:45:59.167Z,8.50
2018-06-12T21:48:26.741Z,8.30
2018-06-12T21:50:54.543Z,10.80
2018-06-12T21:53:22.167Z,14.33
2018-06-12T21:55:51.524Z,12.77
2018-06-12T21:58:19.643Z,14.17
2018-06-12T22:00:48.067Z,14.37
2018-06-12T22:03:15.682Z,12.70
2018-06-12T22:05:43.969Z,13.00
2018-06-12T22:08:12.177Z,14.77
2018-06-12T22:10:41.807Z,10.43
2018-06-12T22:13:10.679Z,15.80
2018-06-12T22:15:39.113Z,12.10
2018-06-12T22:18:07.307Z,16.67
2018-06-12T22:20:34.913Z,17.90
2018-06-12T22:23:05.039Z,18.23
2018-06-12T22:25:32.614Z,19.33
2018-06-12T22:28:00.234Z,15.93
2018-06-12T22:30:27.731Z,19.63
2018-06-12T22:32:55.217Z,16.30
2018-06-12T22:35:22.740Z,19.10
2018-06-12T22:37:50.255Z,18.70
2018-06-12T22:40:17.854Z,15.57
2018-06-12T22:42:45.482Z,16.17
2018-06-12T22:45:13.078Z,10.63
2018-06-12T22:47:40.568Z,11.47
2018-06-12T22:50:08.519Z,9.33
2018-06-12T22:52:36.112Z,10.40
2018-06-12T22:55:03.645Z,13.70
2018-06-12T22:57:32.069Z,13.07
2018-06-12T22:59:59.557Z,12.67
2018-06-12T23:02:27.178Z,11.60
2018-06-12T23:04:54.779Z,10.67
2018-06-12T23:07:22.347Z,11.93
2018-06-12T23:09:49.893Z,11.20
2018-06-12T23:12:17.497Z,9.27
2018-06-12T23:14:45.171Z,7.20
2018-06-12T23:17:12.752Z,7.80
2018-06-12T23:19:51.613Z,7.60
2018-06-12T23:22:19.078Z,9.60
2018-06-12T23:24:46.649Z,5.90
2018-06-12T23:27:14.234Z,5.03
2018-06-12T23:29:41.744Z,3.70
2018-06-12T23:32:09.340Z,4.00
2018-06-12T23:34:36.803Z,4.20
2018-06-12T23:37:04.313Z,3.80
2018-06-12T23:39:31.844Z,3.53
2018-06-12T23:41:59.447Z,50.87
2018-06-12T23:44:27.038Z,3.40
2018-06-12T23:46:54.664Z,3.20
2018-06-12T23:49:22.277Z,3.37
2018-06-12T23:51:49.917Z,2.73
2018-06-12T23:54:17.488Z,2.30
2018-06-12T23:56:45.187Z,2.67
2018-06-12T23:59:12.766Z,1.90
